Aeroporto :
LOGIN :

Iscrizione | Disclaimer

   EN    FR    IT 

 










Sommario :    VFR   VFR Marginale   IFR   IFR Intensivo   IFR Molto Intensivo
Visibilità : 
Base nubi : 
>= 8 km
>= 3000ft
5 / 8 km
1000 / 3000 ft
1500m / 5 km
500 / 1000 ft
800 / 1500m
200 / 500 ft
< 800m
< 200 ft
Simboli :   Temporali  Nebbia  Neve Forte  Precipitazioni Forti  Vento > 20 kt
SIGMETs :   Varie  Temporali  Ghiacco  Turbolenza  Onda orograficha  Ceneri Vulcaniche






- Altitudine del aeroporto : 117 ft
- Codice IATA : NWI


EGSH - Norwich

ULTIMO METAR :
  • 191750Z 28004KT CAVOK 02/01 Q1047

METARs OBSOLETI :
  • 191720Z 29003KT CAVOK 03/01 Q1047 NOSIG
  • 191650Z 27003KT CAVOK 04/02 Q1046
  • 191620Z 25002KT CAVOK 05/04 Q1046
  • 191550Z VRB02KT 9999 FEW017 06/03 Q1045 NOSIG
  • 191520Z 32004KT 280V350 9999 SCT017 07/04 Q1045

TAF TAF EGSH
Valido dal 19 a 18 ore il 20 a 00 ore UTC


191703Z 1918/1924 29006KT 9999 FEW030
PROB30 1918/1924 5000 BR
ATIS : +44 1603 420 640



MetMap, La meteo Aeronautica in un colpo d'occhio ! - Copyright ORBIFLY Dicembre 2007 - Disclaimer

ORBIFLY MET'MAP TEAM :

Programmazione e sviluppo : Alexandra Zaïnal
Concezione : Baudouin d'Aumeries
Aiuto per la programmazione : Marc-Olivier Méhu
Supporto tecnico e logistico : Manuel Goepfert
Aiuto per la traduzione : Arnaldo La Scala

Contatto : metmap@orbifly.com




FONTI E CREDITI :

   NOAA